createdAt,value
2019-02-06T00:00:48.662Z,19.67
2019-02-06T00:03:21.208Z,20.40
2019-02-06T00:05:50.644Z,18.70
2019-02-06T00:08:20.219Z,17.32
2019-02-06T00:10:49.670Z,18.67
2019-02-06T00:13:19.059Z,17.55
2019-02-06T00:15:48.854Z,16.32
2019-02-06T00:18:18.427Z,15.98
2019-02-06T00:20:47.815Z,15.18
2019-02-06T00:23:17.163Z,14.65
2019-02-06T00:25:46.543Z,13.67
2019-02-06T00:28:15.888Z,19.48
2019-02-06T00:30:45.531Z,14.68
2019-02-06T00:33:14.867Z,14.55
2019-02-06T00:35:44.243Z,15.05
2019-02-06T00:38:13.832Z,16.10
2019-02-06T00:40:43.194Z,16.52
2019-02-06T00:43:12.535Z,16.20
2019-02-06T00:45:42.248Z,16.52
2019-02-06T00:48:11.587Z,15.72
2019-02-06T00:50:40.951Z,14.98
2019-02-06T00:53:10.301Z,14.90
2019-02-06T00:55:39.734Z,14.60
2019-02-06T00:58:09.287Z,20.52
2019-02-06T01:00:39.056Z,15.25
2019-02-06T01:03:08.599Z,14.25
2019-02-06T01:05:38.940Z,21.77
2019-02-06T01:08:08.321Z,18.25
2019-02-06T01:10:37.716Z,19.35
2019-02-06T01:13:07.056Z,18.50
2019-02-06T01:15:36.423Z,21.23
2019-02-06T01:18:05.953Z,20.77
2019-02-06T01:20:35.338Z,21.07
2019-02-06T01:23:04.876Z,23.07
2019-02-06T01:25:34.238Z,24.25
2019-02-06T01:28:03.600Z,23.67
2019-02-06T01:30:39.579Z,26.97
2019-02-06T01:33:08.923Z,23.67
2019-02-06T01:35:49.160Z,23.70
2019-02-06T01:38:09.347Z,26.52
2019-02-06T01:40:38.708Z,23.30
2019-02-06T01:43:08.043Z,23.18
2019-02-06T01:45:37.712Z,24.52
2019-02-06T01:48:07.051Z,22.77
2019-02-06T01:50:36.424Z,22.13
2019-02-06T01:53:05.767Z,21.00
2019-02-06T01:55:35.131Z,20.75
2019-02-06T01:58:04.588Z,21.20
2019-02-06T02:00:34.051Z,19.95
2019-02-06T02:03:03.420Z,26.87
2019-02-06T02:05:32.815Z,26.52
2019-02-06T02:08:02.191Z,22.67
2019-02-06T02:10:31.594Z,32.35
2019-02-06T02:13:00.971Z,26.27
2019-02-06T02:15:30.366Z,26.17
2019-02-06T02:17:59.739Z,28.50
2019-02-06T02:20:29.154Z,24.95
2019-02-06T02:22:58.533Z,23.10
2019-02-06T02:25:27.944Z,21.90
2019-02-06T02:27:57.310Z,21.40
2019-02-06T02:30:34.571Z,17.67
2019-02-06T02:33:03.957Z,21.82
2019-02-06T02:35:33.323Z,26.12
2019-02-06T02:38:02.720Z,28.55
2019-02-06T02:40:32.099Z,28.20
2019-02-06T02:43:01.498Z,24.52
2019-02-06T02:45:31.170Z,31.10
2019-02-06T02:48:00.575Z,24.75
2019-02-06T02:50:29.987Z,24.63
2019-02-06T02:52:59.391Z,22.52
2019-02-06T02:55:28.771Z,24.30
2019-02-06T02:57:58.167Z,24.90
2019-02-06T03:00:53.995Z,22.40
2019-02-06T03:03:36.351Z,24.35
2019-02-06T03:06:05.940Z,28.42
2019-02-06T03:08:35.331Z,31.23
2019-02-06T03:11:05.011Z,34.83
2019-02-06T03:13:34.417Z,33.35
2019-02-06T03:16:03.750Z,32.23
2019-02-06T03:18:33.123Z,29.72
2019-02-06T03:21:02.490Z,31.35
2019-02-06T03:23:31.849Z,37.00
2019-02-06T03:26:01.211Z,30.25
2019-02-06T03:28:30.571Z,27.27
2019-02-06T03:30:59.933Z,29.87
2019-02-06T03:33:29.292Z,24.25
2019-02-06T03:35:58.653Z,24.10
2019-02-06T03:38:28.018Z,27.58
2019-02-06T03:40:57.370Z,31.70
2019-02-06T03:43:26.731Z,31.68
2019-02-06T03:45:56.078Z,37.75
2019-02-06T03:48:25.434Z,38.78
2019-02-06T03:50:54.775Z,38.15
2019-02-06T03:53:24.435Z,37.42
2019-02-06T03:55:53.843Z,35.63
2019-02-06T03:58:23.143Z,39.40
2019-02-06T04:00:52.490Z,36.90
2019-02-06T04:03:21.957Z,31.70
2019-02-06T04:05:51.302Z,40.35
2019-02-06T04:08:20.868Z,34.30
2019-02-06T04:10:50.221Z,35.70
2019-02-06T04:13:19.622Z,29.15
2019-02-06T04:15:48.979Z,37.55
2019-02-06T04:18:18.324Z,37.98
2019-02-06T04:20:47.703Z,39.63
2019-02-06T04:23:18.383Z,35.73
2019-02-06T04:25:47.777Z,32.48
2019-02-06T04:28:17.135Z,38.70
2019-02-06T04:30:46.454Z,37.65
2019-02-06T04:33:15.813Z,38.20
2019-02-06T04:35:45.175Z,35.73
2019-02-06T04:38:15.133Z,32.67
2019-02-06T04:40:44.493Z,31.35
2019-02-06T04:43:13.835Z,34.40
2019-02-06T04:45:43.201Z,34.27
2019-02-06T04:48:12.546Z,35.80
2019-02-06T04:50:41.906Z,37.50
2019-02-06T04:53:15.848Z,37.00
2019-02-06T04:55:45.243Z,39.30
2019-02-06T04:58:14.624Z,37.78
2019-02-06T05:00:44.044Z,39.63
2019-02-06T05:03:13.415Z,36.77
2019-02-06T05:05:43.048Z,35.20
2019-02-06T05:08:12.571Z,37.98
2019-02-06T05:10:41.971Z,38.78
2019-02-06T05:13:11.334Z,35.52
2019-02-06T05:15:40.735Z,36.93
2019-02-06T05:18:10.099Z,36.17
2019-02-06T05:20:40.731Z,36.70
2019-02-06T05:23:10.702Z,38.17
2019-02-06T05:25:40.104Z,37.40
2019-02-06T05:28:09.574Z,36.48
2019-02-06T05:30:38.967Z,36.03
2019-02-06T05:33:08.322Z,39.00
2019-02-06T05:35:37.818Z,38.40
2019-02-06T05:38:07.487Z,39.00
2019-02-06T05:40:36.857Z,38.85
2019-02-06T05:43:06.338Z,37.13
2019-02-06T05:45:35.735Z,35.40
2019-02-06T05:48:05.320Z,37.23
2019-02-06T05:50:34.683Z,39.73
2019-02-06T05:53:04.073Z,39.10
2019-02-06T05:55:33.453Z,39.25
2019-02-06T05:58:02.830Z,37.75
2019-02-06T06:00:36.556Z,40.65
2019-02-06T06:03:05.956Z,38.50
2019-02-06T06:05:35.308Z,38.75
2019-02-06T06:08:04.815Z,38.25
2019-02-06T06:10:34.182Z,35.50
2019-02-06T06:13:03.569Z,39.18
2019-02-06T06:15:32.938Z,37.10
2019-02-06T06:18:02.328Z,40.23
2019-02-06T06:20:31.743Z,39.50
2019-02-06T06:23:01.135Z,39.10
2019-02-06T06:25:30.804Z,39.33
2019-02-06T06:28:00.182Z,41.88
2019-02-06T06:30:29.548Z,42.70
2019-02-06T06:32:59.473Z,38.83
2019-02-06T06:35:28.831Z,40.15
2019-02-06T06:38:01.841Z,36.08
2019-02-06T06:40:29.243Z,40.83
2019-02-06T06:42:58.667Z,42.50
2019-02-06T06:45:28.031Z,41.08
2019-02-06T06:47:57.438Z,43.13
2019-02-06T06:50:26.832Z,40.08
2019-02-06T06:52:56.192Z,41.63
2019-02-06T06:55:25.937Z,39.03
2019-02-06T06:57:55.354Z,38.55
2019-02-06T07:00:26.460Z,38.67
2019-02-06T07:02:55.819Z,43.25
2019-02-06T07:05:25.202Z,36.33
2019-02-06T07:07:54.813Z,41.25
2019-02-06T07:10:24.501Z,39.30
2019-02-06T07:12:53.891Z,42.35
2019-02-06T07:15:25.407Z,38.08
2019-02-06T07:17:54.766Z,41.63
2019-02-06T07:20:24.184Z,41.02
2019-02-06T07:22:53.548Z,36.88
2019-02-06T07:25:23.135Z,39.90
2019-02-06T07:27:52.507Z,38.17
2019-02-06T07:30:32.886Z,40.98
2019-02-06T07:33:02.369Z,39.78
2019-02-06T07:35:31.846Z,37.95
2019-02-06T07:38:01.424Z,36.90
2019-02-06T07:40:30.908Z,36.95
2019-02-06T07:43:00.288Z,42.48
2019-02-06T07:45:29.678Z,39.88
2019-02-06T07:47:59.050Z,40.67
2019-02-06T07:50:30.812Z,38.65
2019-02-06T07:53:00.579Z,37.93
2019-02-06T07:55:30.166Z,37.73
2019-02-06T07:57:59.534Z,41.25
2019-02-06T08:00:28.908Z,36.68
2019-02-06T08:02:58.875Z,39.60
2019-02-06T08:05:28.443Z,40.28
2019-02-06T08:07:58.044Z,36.80
2019-02-06T08:10:29.441Z,36.55
2019-02-06T08:12:58.898Z,35.52
2019-02-06T08:15:28.278Z,40.45
2019-02-06T08:17:57.844Z,39.18
2019-02-06T08:20:27.247Z,37.55
2019-02-06T08:22:56.819Z,38.08
2019-02-06T08:25:26.486Z,39.92
2019-02-06T08:27:55.887Z,38.35
2019-02-06T08:30:36.620Z,37.53
2019-02-06T08:33:06.283Z,33.23
2019-02-06T08:35:36.044Z,35.68
2019-02-06T08:38:05.860Z,35.65
2019-02-06T08:40:35.419Z,33.38
2019-02-06T08:43:04.907Z,35.48
2019-02-06T08:45:34.272Z,37.08
2019-02-06T08:48:03.662Z,36.08
2019-02-06T08:50:33.331Z,34.20
2019-02-06T08:53:02.745Z,34.75
2019-02-06T08:55:32.299Z,31.73
2019-02-06T08:58:01.868Z,33.95
2019-02-06T09:00:33.603Z,30.60
2019-02-06T09:03:03.519Z,34.25
2019-02-06T09:05:33.083Z,30.97
2019-02-06T09:08:02.790Z,31.17
2019-02-06T09:10:32.330Z,30.95
2019-02-06T09:13:01.807Z,28.83
2019-02-06T09:15:31.437Z,27.87
2019-02-06T09:18:00.818Z,27.58
2019-02-06T09:20:30.541Z,27.70
2019-02-06T09:23:00.079Z,31.15
2019-02-06T09:25:29.802Z,27.90
2019-02-06T09:27:59.221Z,27.52
2019-02-06T09:30:30.027Z,26.85
2019-02-06T09:32:59.706Z,24.72
2019-02-06T09:35:29.084Z,28.35
2019-02-06T09:37:58.709Z,26.90
2019-02-06T09:40:29.439Z,24.75
2019-02-06T09:42:58.928Z,24.37
2019-02-06T09:45:28.398Z,25.72
2019-02-06T09:47:57.784Z,23.07
2019-02-06T09:50:35.213Z,26.75
2019-02-06T09:53:04.691Z,27.30
2019-02-06T09:55:34.156Z,23.87
2019-02-06T09:58:03.757Z,24.90
2019-02-06T10:00:35.285Z,24.47
2019-02-06T10:03:05.393Z,26.17
2019-02-06T10:05:34.750Z,26.25
2019-02-06T10:08:04.535Z,26.65
2019-02-06T10:10:33.903Z,28.30
2019-02-06T10:13:03.268Z,25.57
2019-02-06T10:15:34.603Z,26.00
2019-02-06T10:18:04.463Z,28.70
2019-02-06T10:20:36.248Z,29.75
2019-02-06T10:23:06.610Z,25.20
2019-02-06T10:25:36.274Z,29.52
2019-02-06T10:28:05.626Z,28.92
2019-02-06T10:30:46.258Z,26.90
2019-02-06T10:33:18.702Z,25.10
2019-02-06T10:35:46.732Z,27.37
2019-02-06T10:38:16.074Z,27.65
2019-02-06T10:40:45.463Z,28.45
2019-02-06T10:43:15.033Z,29.98
2019-02-06T10:45:44.431Z,28.25
2019-02-06T10:48:13.805Z,28.23
2019-02-06T10:50:46.011Z,28.30
2019-02-06T10:53:15.376Z,26.40
2019-02-06T10:55:44.859Z,24.98
2019-02-06T10:58:14.359Z,23.77
2019-02-06T11:00:49.492Z,23.70
2019-02-06T11:03:19.715Z,24.63
2019-02-06T11:05:49.104Z,25.60
2019-02-06T11:08:18.572Z,23.62
2019-02-06T11:10:48.117Z,25.48
2019-02-06T11:13:17.711Z,24.32
2019-02-06T11:15:47.317Z,24.27
2019-02-06T11:18:16.679Z,28.57
2019-02-06T11:20:46.096Z,22.98
2019-02-06T11:23:15.467Z,29.15
2019-02-06T11:25:44.944Z,25.20
2019-02-06T11:28:14.507Z,24.75
2019-02-06T11:30:44.012Z,25.43
2019-02-06T11:33:13.510Z,23.10
2019-02-06T11:35:42.900Z,26.37
2019-02-06T11:38:12.267Z,26.10
2019-02-06T11:40:41.655Z,24.07
2019-02-06T11:43:11.524Z,25.55
2019-02-06T11:45:40.906Z,22.30
2019-02-06T11:48:10.383Z,24.87
2019-02-06T11:50:41.077Z,24.77
2019-02-06T11:53:18.584Z,28.57
2019-02-06T11:55:48.311Z,24.33
2019-02-06T11:58:17.755Z,24.20
2019-02-06T12:01:09.119Z,25.63
2019-02-06T12:03:38.485Z,26.83
2019-02-06T12:06:07.869Z,24.73
2019-02-06T12:08:37.228Z,27.13
2019-02-06T12:11:06.926Z,23.53
2019-02-06T12:13:36.283Z,24.97
2019-02-06T12:16:05.766Z,26.00
2019-02-06T12:18:35.170Z,25.50
2019-02-06T12:21:04.686Z,24.30
2019-02-06T12:23:34.047Z,27.40
2019-02-06T12:26:03.581Z,23.53
2019-02-06T12:28:32.944Z,25.43
2019-02-06T12:31:02.327Z,23.57
2019-02-06T12:33:31.730Z,26.47
2019-02-06T12:36:01.107Z,22.30
2019-02-06T12:38:30.791Z,26.30
2019-02-06T12:41:00.143Z,23.30
2019-02-06T12:43:29.526Z,24.90
2019-02-06T12:45:58.891Z,22.50
2019-02-06T12:48:28.272Z,24.40
2019-02-06T12:50:57.622Z,25.40
2019-02-06T12:53:50.710Z,23.30
2019-02-06T12:56:20.079Z,23.87
2019-02-06T12:58:49.475Z,24.90
2019-02-06T13:01:18.847Z,25.70
2019-02-06T13:03:48.241Z,22.80
2019-02-06T13:06:17.603Z,25.00
2019-02-06T13:08:47.012Z,24.23
2019-02-06T13:11:16.379Z,21.90
2019-02-06T13:13:45.755Z,20.87
2019-02-06T13:16:15.128Z,22.40
2019-02-06T13:18:44.511Z,21.60
2019-02-06T13:21:13.968Z,19.90
2019-02-06T13:23:43.359Z,23.67
2019-02-06T13:26:12.725Z,24.23
2019-02-06T13:28:42.112Z,23.53
2019-02-06T13:31:11.487Z,26.03
2019-02-06T13:33:40.918Z,21.47
2019-02-06T13:36:11.043Z,23.27
2019-02-06T13:38:40.438Z,23.63
2019-02-06T13:41:09.829Z,22.47
2019-02-06T13:43:39.207Z,22.50
2019-02-06T13:46:08.742Z,25.97
2019-02-06T13:48:38.115Z,22.20
2019-02-06T13:51:16.461Z,22.60
2019-02-06T13:53:38.507Z,23.47
2019-02-06T13:56:07.878Z,24.00
2019-02-06T13:58:37.262Z,25.43
2019-02-06T14:01:06.724Z,23.00
2019-02-06T14:03:36.107Z,26.07
2019-02-06T14:06:06.015Z,22.10
2019-02-06T14:08:35.406Z,24.70
2019-02-06T14:11:04.867Z,22.90
2019-02-06T14:13:34.249Z,23.20
2019-02-06T14:16:03.876Z,22.60
2019-02-06T14:18:33.242Z,22.37
2019-02-06T14:21:02.635Z,23.27
2019-02-06T14:23:56.115Z,22.80
2019-02-06T14:26:45.114Z,24.03
2019-02-06T14:29:52.759Z,24.10
2019-02-06T14:32:56.647Z,21.10
2019-02-06T14:36:00.455Z,20.10
2019-02-06T14:39:15.439Z,22.40
2019-02-06T14:41:53.055Z,20.62
2019-02-06T14:44:49.126Z,20.93
2019-02-06T14:47:32.957Z,24.05
2019-02-06T14:50:51.958Z,22.63
2019-02-06T14:53:52.999Z,22.32
2019-02-06T14:56:56.938Z,22.30
2019-02-06T15:00:05.644Z,21.50
2019-02-06T15:03:04.594Z,23.17
2019-02-06T15:06:19.663Z,20.77
2019-02-06T15:09:31.388Z,24.23
2019-02-06T15:12:41.736Z,21.10
2019-02-06T15:15:53.555Z,21.90
2019-02-06T15:18:48.855Z,22.42
2019-02-06T15:21:31.731Z,22.25
2019-02-06T15:24:26.125Z,21.27
2019-02-06T15:27:41.983Z,19.90
2019-02-06T15:30:46.830Z,22.10
2019-02-06T15:33:40.651Z,21.37
2019-02-06T15:36:33.915Z,20.73
2019-02-06T15:39:35.779Z,20.35
2019-02-06T15:42:31.720Z,18.82
2019-02-06T15:45:35.427Z,17.73
2019-02-06T15:48:36.338Z,15.63
2019-02-06T15:51:37.046Z,17.67
2019-02-06T15:54:31.756Z,14.80
2019-02-06T15:57:42.033Z,15.88
2019-02-06T16:00:48.030Z,13.50
2019-02-06T16:04:17.188Z,15.83
2019-02-06T16:07:15.282Z,17.00
2019-02-06T16:10:25.610Z,18.52
2019-02-06T16:13:24.136Z,17.90
2019-02-06T16:16:19.444Z,17.67
2019-02-06T16:19:24.751Z,17.75
2019-02-06T16:22:12.355Z,16.65
2019-02-06T16:25:07.083Z,16.35
2019-02-06T16:27:58.315Z,17.77
2019-02-06T16:30:49.775Z,16.30
2019-02-06T16:34:01.952Z,16.40
2019-02-06T16:36:51.927Z,18.40
2019-02-06T16:39:58.999Z,19.92
2019-02-06T16:43:08.339Z,21.70
2019-02-06T16:46:20.500Z,16.73
2019-02-06T16:49:51.765Z,15.23
2019-02-06T16:52:46.348Z,16.52
2019-02-06T16:55:51.706Z,16.67
2019-02-06T16:59:10.835Z,16.02
2019-02-06T17:02:01.585Z,14.90
2019-02-06T17:04:49.047Z,16.42
2019-02-06T17:07:51.254Z,14.50
2019-02-06T17:10:57.286Z,16.80
2019-02-06T17:13:59.374Z,17.77
2019-02-06T17:17:22.099Z,16.12
2019-02-06T17:20:50.779Z,14.98
2019-02-06T17:23:49.675Z,16.10
2019-02-06T17:27:09.628Z,15.70
2019-02-06T17:30:25.935Z,16.62
2019-02-06T17:33:37.559Z,15.00
2019-02-06T17:36:37.080Z,16.02
2019-02-06T17:39:27.631Z,21.05
2019-02-06T17:42:15.851Z,19.77
2019-02-06T17:45:14.521Z,16.85
2019-02-06T17:48:22.058Z,17.05
2019-02-06T17:51:11.198Z,18.50
2019-02-06T17:54:01.798Z,20.15
2019-02-06T17:56:31.175Z,18.80
2019-02-06T17:59:00.548Z,19.02
2019-02-06T18:01:39.352Z,18.77
2019-02-06T18:04:11.406Z,17.77
2019-02-06T18:06:40.891Z,19.17
2019-02-06T18:09:15.575Z,19.10
2019-02-06T18:11:46.120Z,13.95
2019-02-06T18:14:15.482Z,13.53
2019-02-06T18:16:44.887Z,17.48
2019-02-06T18:19:14.298Z,15.72
2019-02-06T18:21:43.699Z,18.50
2019-02-06T18:24:13.310Z,15.65
2019-02-06T18:26:47.043Z,18.25
2019-02-06T18:29:16.634Z,20.88
2019-02-06T18:31:46.015Z,21.20
2019-02-06T18:34:15.576Z,18.65
2019-02-06T18:36:44.958Z,18.00
2019-02-06T18:39:15.874Z,17.77
2019-02-06T18:41:45.264Z,16.48
2019-02-06T18:44:14.631Z,15.25
2019-02-06T18:46:45.614Z,14.25
2019-02-06T18:49:15.209Z,15.93
2019-02-06T18:51:45.462Z,18.70
2019-02-06T18:54:14.821Z,18.23
2019-02-06T18:56:44.511Z,19.45
2019-02-06T18:59:13.869Z,20.15
2019-02-06T19:01:43.298Z,16.65
2019-02-06T19:04:17.636Z,16.55
2019-02-06T19:06:47.016Z,14.38
2019-02-06T19:09:17.280Z,16.62
2019-02-06T19:11:46.776Z,15.93
2019-02-06T19:14:16.307Z,19.55
2019-02-06T19:16:45.691Z,19.95
2019-02-06T19:19:24.833Z,17.15
2019-02-06T19:21:46.100Z,20.02
2019-02-06T19:24:17.738Z,16.90
2019-02-06T19:26:46.547Z,20.35
2019-02-06T19:29:15.906Z,19.80
2019-02-06T19:31:45.627Z,19.77
2019-02-06T19:34:14.987Z,20.85
2019-02-06T19:36:44.367Z,19.82
2019-02-06T19:39:13.732Z,20.35
2019-02-06T19:41:43.118Z,17.25
2019-02-06T19:44:12.473Z,19.85
2019-02-06T19:46:41.851Z,18.15
2019-02-06T19:49:11.314Z,15.90
2019-02-06T19:51:40.698Z,15.13
2019-02-06T19:54:10.063Z,19.62
2019-02-06T19:56:39.451Z,17.57
2019-02-06T19:59:08.816Z,18.10
2019-02-06T20:01:38.262Z,17.42
2019-02-06T20:04:07.631Z,15.55
2019-02-06T20:06:37.214Z,18.50
2019-02-06T20:09:11.344Z,17.20
2019-02-06T20:11:40.735Z,19.27
2019-02-06T20:14:10.448Z,20.88
2019-02-06T20:16:39.827Z,20.23
2019-02-06T20:19:09.207Z,18.85
2019-02-06T20:21:38.585Z,17.95
2019-02-06T20:24:08.383Z,19.62
2019-02-06T20:26:37.749Z,17.92
2019-02-06T20:29:07.136Z,18.60
2019-02-06T20:31:36.499Z,19.25
2019-02-06T20:34:06.036Z,19.95
2019-02-06T20:36:35.407Z,19.25
2019-02-06T20:39:07.988Z,21.07
2019-02-06T20:41:37.351Z,20.85
2019-02-06T20:44:06.843Z,19.65
2019-02-06T20:46:36.194Z,17.20
2019-02-06T20:49:05.676Z,18.85
2019-02-06T20:51:35.036Z,20.27
2019-02-06T20:54:04.814Z,24.23
2019-02-06T20:56:34.184Z,21.20
2019-02-06T20:59:03.563Z,21.85
2019-02-06T21:01:32.918Z,21.17
2019-02-06T21:04:02.302Z,19.95
2019-02-06T21:06:31.659Z,18.65
2019-02-06T21:09:01.043Z,19.07
2019-02-06T21:11:30.712Z,20.30
2019-02-06T21:14:00.161Z,21.57
2019-02-06T21:16:29.524Z,22.10
2019-02-06T21:18:58.906Z,18.85
2019-02-06T21:21:28.291Z,23.05
2019-02-06T21:23:57.675Z,24.63
2019-02-06T21:26:27.230Z,23.95
2019-02-06T21:28:56.617Z,22.40
2019-02-06T21:31:25.980Z,20.23
2019-02-06T21:33:55.363Z,25.43
2019-02-06T21:36:24.730Z,23.18
2019-02-06T21:38:54.137Z,24.67
2019-02-06T21:41:23.792Z,26.25
2019-02-06T21:43:53.262Z,26.90
2019-02-06T21:46:22.647Z,86.90
2019-02-06T21:48:52.035Z,45.33
2019-02-06T21:51:21.407Z,24.18
2019-02-06T21:53:50.791Z,25.00
2019-02-06T21:56:20.249Z,22.45
2019-02-06T21:58:49.606Z,20.30
2019-02-06T22:01:19.003Z,21.42
2019-02-06T22:03:48.382Z,21.00
2019-02-06T22:06:17.759Z,22.58
2019-02-06T22:08:47.120Z,24.65
2019-02-06T22:11:16.811Z,21.65
2019-02-06T22:13:54.963Z,23.50
2019-02-06T22:16:17.198Z,20.27
2019-02-06T22:18:46.572Z,19.67
2019-02-06T22:21:15.974Z,18.40
2019-02-06T22:23:45.327Z,20.97
2019-02-06T22:26:14.919Z,20.88
2019-02-06T22:28:44.278Z,25.08
2019-02-06T22:31:13.663Z,20.75
2019-02-06T22:33:43.027Z,19.50
2019-02-06T22:36:12.407Z,17.45
2019-02-06T22:38:41.775Z,17.05
2019-02-06T22:41:11.408Z,18.82
2019-02-06T22:43:40.739Z,17.07
2019-02-06T22:46:10.155Z,18.80
2019-02-06T22:48:39.512Z,17.80
2019-02-06T22:51:08.903Z,22.13
2019-02-06T22:53:38.259Z,19.73
2019-02-06T22:56:07.754Z,17.42
2019-02-06T22:58:37.115Z,16.67
2019-02-06T23:01:34.947Z,17.60
2019-02-06T23:04:04.813Z,19.02
2019-02-06T23:06:34.199Z,17.92
2019-02-06T23:09:05.207Z,19.25
2019-02-06T23:11:34.542Z,16.15
2019-02-06T23:14:04.000Z,18.95
2019-02-06T23:16:33.483Z,17.57
2019-02-06T23:19:02.945Z,18.23
2019-02-06T23:21:32.359Z,18.75
2019-02-06T23:24:01.714Z,17.25
2019-02-06T23:26:31.098Z,20.55
2019-02-06T23:29:00.457Z,17.45
2019-02-06T23:31:29.831Z,18.02
2019-02-06T23:33:59.199Z,20.72
2019-02-06T23:36:28.575Z,23.15
2019-02-06T23:38:57.945Z,22.30
2019-02-06T23:41:27.300Z,24.00
2019-02-06T23:43:56.678Z,21.80
2019-02-06T23:46:26.049Z,19.98
2019-02-06T23:48:55.427Z,18.73
2019-02-06T23:51:24.796Z,22.82
2019-02-06T23:53:54.239Z,22.75
2019-02-06T23:56:23.654Z,18.12
2019-02-06T23:58:53.041Z,19.15
